sensor_id;sensor_type;location;lat;lon;timestamp;pressure;altitude;pressure_sealevel;temperature;humidity
78123;BME280;67376;44.802;10.332;2023-09-12T00:00:51;100830.59;;;27.99;38.62
78123;BME280;67376;44.802;10.332;2023-09-12T00:03:19;100833.31;;;27.99;38.06
78123;BME280;67376;44.802;10.332;2023-09-12T00:05:54;100832.50;;;27.98;38.09
78123;BME280;67376;44.802;10.332;2023-09-12T00:08:20;100837.72;;;28.00;37.42
78123;BME280;67376;44.802;10.332;2023-09-12T00:10:45;100827.84;;;27.99;38.16
78123;BME280;67376;44.802;10.332;2023-09-12T00:13:10;100829.75;;;27.98;37.92
78123;BME280;67376;44.802;10.332;2023-09-12T00:15:36;100834.16;;;27.99;37.95
78123;BME280;67376;44.802;10.332;2023-09-12T00:18:01;100836.91;;;27.99;38.34
78123;BME280;67376;44.802;10.332;2023-09-12T00:20:26;100828.66;;;27.99;38.29
78123;BME280;67376;44.802;10.332;2023-09-12T00:22:51;100824.28;;;27.98;37.99
78123;BME280;67376;44.802;10.332;2023-09-12T00:25:19;100826.72;;;28.00;37.92
78123;BME280;67376;44.802;10.332;2023-09-12T00:27:44;100825.09;;;27.99;38.25
78123;BME280;67376;44.802;10.332;2023-09-12T00:30:10;100816.88;;;27.99;37.96
78123;BME280;67376;44.802;10.332;2023-09-12T00:32:35;100819.59;;;27.99;38.03
78123;BME280;67376;44.802;10.332;2023-09-12T00:35:00;100821.53;;;27.98;37.73
78123;BME280;67376;44.802;10.332;2023-09-12T00:37:26;100814.41;;;27.97;37.81
78123;BME280;67376;44.802;10.332;2023-09-12T00:39:51;100818.78;;;27.98;38.18
78123;BME280;67376;44.802;10.332;2023-09-12T00:42:16;100818.78;;;27.98;38.11
78123;BME280;67376;44.802;10.332;2023-09-12T00:44:41;100818.78;;;27.98;38.31
78123;BME280;67376;44.802;10.332;2023-09-12T00:47:07;100819.59;;;27.99;38.08
78123;BME280;67376;44.802;10.332;2023-09-12T00:49:33;100814.13;;;27.99;38.06
78123;BME280;67376;44.802;10.332;2023-09-12T00:51:59;100819.88;;;27.97;38.17
78123;BME280;67376;44.802;10.332;2023-09-12T00:54:24;100814.13;;;27.99;37.91
78123;BME280;67376;44.802;10.332;2023-09-12T00:56:50;100809.44;;;27.99;38.15
78123;BME280;67376;44.802;10.332;2023-09-12T00:59:15;100810.56;;;27.98;38.15
78123;BME280;67376;44.802;10.332;2023-09-12T01:01:42;100801.50;;;27.98;38.26
78123;BME280;67376;44.802;10.332;2023-09-12T01:04:08;100807.81;;;27.98;38.15
78123;BME280;67376;44.802;10.332;2023-09-12T01:06:34;100797.94;;;27.97;38.22
78123;BME280;67376;44.802;10.332;2023-09-12T01:08:59;100800.69;;;27.97;38.50
78123;BME280;67376;44.802;10.332;2023-09-12T01:11:25;100806.97;;;27.98;38.09
78123;BME280;67376;44.802;10.332;2023-09-12T01:13:51;100806.97;;;27.98;38.48
78123;BME280;67376;44.802;10.332;2023-09-12T01:16:16;100805.06;;;27.98;38.22
78123;BME280;67376;44.802;10.332;2023-09-12T01:18:41;100803.13;;;27.99;38.22
78123;BME280;67376;44.802;10.332;2023-09-12T01:28:49;100804.25;;;27.98;38.71
78123;BME280;67376;44.802;10.332;2023-09-12T01:31:16;100812.75;;;27.96;38.45
78123;BME280;67376;44.802;10.332;2023-09-12T01:33:42;100808.91;;;27.97;38.31
78123;BME280;67376;44.802;10.332;2023-09-12T01:36:10;100814.41;;;27.97;38.45
78123;BME280;67376;44.802;10.332;2023-09-12T01:38:35;100814.41;;;27.97;38.40
78123;BME280;67376;44.802;10.332;2023-09-12T01:41:00;100808.09;;;27.97;38.29
78123;BME280;67376;44.802;10.332;2023-09-12T01:43:26;100809.19;;;27.95;38.12
78123;BME280;67376;44.802;10.332;2023-09-12T01:45:53;100813.59;;;27.97;38.39
78123;BME280;67376;44.802;10.332;2023-09-12T01:48:19;100808.09;;;27.97;38.36
78123;BME280;67376;44.802;10.332;2023-09-12T01:50:46;100817.16;;;27.97;38.39
78123;BME280;67376;44.802;10.332;2023-09-12T01:53:12;100819.06;;;27.97;38.46
78123;BME280;67376;44.802;10.332;2023-09-12T01:55:39;100811.13;;;27.95;38.55
78123;BME280;67376;44.802;10.332;2023-09-12T01:58:04;100818.25;;;27.96;38.73
78123;BME280;67376;44.802;10.332;2023-09-12T02:00:30;100821.28;;;27.94;38.51
78123;BME280;67376;44.802;10.332;2023-09-12T02:02:56;100822.09;;;27.95;38.60
78123;BME280;67376;44.802;10.332;2023-09-12T02:05:21;100820.19;;;27.95;38.26
78123;BME280;67376;44.802;10.332;2023-09-12T02:07:47;100815.50;;;27.96;38.34
78123;BME280;67376;44.802;10.332;2023-09-12T02:10:12;100813.59;;;27.97;38.58
78123;BME280;67376;44.802;10.332;2023-09-12T02:12:38;100821.81;;;27.97;38.43
78123;BME280;67376;44.802;10.332;2023-09-12T02:15:04;100825.66;;;27.95;38.48
78123;BME280;67376;44.802;10.332;2023-09-12T02:17:29;100821.00;;;27.96;38.42
78123;BME280;67376;44.802;10.332;2023-09-12T02:19:54;100831.44;;;27.94;38.46
78123;BME280;67376;44.802;10.332;2023-09-12T02:22:19;100830.34;;;27.95;38.49
78123;BME280;67376;44.802;10.332;2023-09-12T02:24:45;100825.66;;;27.95;38.86
78123;BME280;67376;44.802;10.332;2023-09-12T02:27:10;100830.34;;;27.95;38.60
78123;BME280;67376;44.802;10.332;2023-09-12T02:29:36;100833.38;;;27.93;38.57
78123;BME280;67376;44.802;10.332;2023-09-12T02:32:02;100827.88;;;27.93;38.65
78123;BME280;67376;44.802;10.332;2023-09-12T02:34:27;100836.09;;;27.93;38.76
78123;BME280;67376;44.802;10.332;2023-09-12T02:36:53;100828.16;;;27.92;38.56
78123;BME280;67376;44.802;10.332;2023-09-12T02:39:18;100832.53;;;27.93;38.45
78123;BME280;67376;44.802;10.332;2023-09-12T02:41:43;100826.22;;;27.92;38.58
78123;BME280;67376;44.802;10.332;2023-09-12T02:44:08;100832.53;;;27.93;38.62
78123;BME280;67376;44.802;10.332;2023-09-12T02:46:34;100827.06;;;27.93;38.65
78123;BME280;67376;44.802;10.332;2023-09-12T02:48:59;100827.06;;;27.93;38.88
78123;BME280;67376;44.802;10.332;2023-09-12T02:51:25;100825.41;;;27.92;38.51
78123;BME280;67376;44.802;10.332;2023-09-12T02:53:50;100824.59;;;27.91;39.07
78123;BME280;67376;44.802;10.332;2023-09-12T02:56:15;100829.25;;;27.91;38.63
78123;BME280;67376;44.802;10.332;2023-09-12T02:58:40;100828.16;;;27.92;38.67
78123;BME280;67376;44.802;10.332;2023-09-12T03:01:06;100830.09;;;27.91;38.68
78123;BME280;67376;44.802;10.332;2023-09-12T03:03:31;100828.44;;;27.90;38.67
78123;BME280;67376;44.802;10.332;2023-09-12T03:06:00;100834.75;;;27.91;38.73
78123;BME280;67376;44.802;10.332;2023-09-12T03:08:25;100833.66;;;27.92;38.77
78123;BME280;67376;44.802;10.332;2023-09-12T03:10:56;100836.66;;;27.90;38.75
78123;BME280;67376;44.802;10.332;2023-09-12T03:13:23;100830.38;;;27.90;38.78
78123;BME280;67376;44.802;10.332;2023-09-12T03:15:49;100828.44;;;27.90;38.76
78123;BME280;67376;44.802;10.332;2023-09-12T03:18:14;100821.03;;;27.91;38.75
78123;BME280;67376;44.802;10.332;2023-09-12T03:20:39;100819.38;;;27.90;38.70
78123;BME280;67376;44.802;10.332;2023-09-12T03:23:05;100822.13;;;27.90;39.03
78123;BME280;67376;44.802;10.332;2023-09-12T03:25:34;100819.38;;;27.90;38.84
78123;BME280;67376;44.802;10.332;2023-09-12T03:27:59;100816.66;;;27.90;38.81
78123;BME280;67376;44.802;10.332;2023-09-12T03:30:25;100816.94;;;27.88;38.85
78123;BME280;67376;44.802;10.332;2023-09-12T03:32:50;100812.25;;;27.89;38.73
78123;BME280;67376;44.802;10.332;2023-09-12T03:35:15;100805.13;;;27.88;38.80
78123;BME280;67376;44.802;10.332;2023-09-12T03:37:40;100810.34;;;27.89;38.84
78123;BME280;67376;44.802;10.332;2023-09-12T03:40:08;100809.78;;;27.87;38.91
78123;BME280;67376;44.802;10.332;2023-09-12T03:42:33;100807.59;;;27.89;38.60
78123;BME280;67376;44.802;10.332;2023-09-12T03:44:58;100809.50;;;27.89;38.96
78123;BME280;67376;44.802;10.332;2023-09-12T03:47:24;100815.28;;;27.87;38.86
78123;BME280;67376;44.802;10.332;2023-09-12T03:49:49;100810.63;;;27.88;38.97
78123;BME280;67376;44.802;10.332;2023-09-12T03:52:14;100799.09;;;27.86;38.82
78123;BME280;67376;44.802;10.332;2023-09-12T03:54:39;100805.13;;;27.88;38.85
78123;BME280;67376;44.802;10.332;2023-09-12T03:57:05;100804.31;;;27.87;38.91
78123;BME280;67376;44.802;10.332;2023-09-12T03:59:30;100815.28;;;27.87;38.93
78123;BME280;67376;44.802;10.332;2023-09-12T04:01:55;100814.47;;;27.87;39.11
78123;BME280;67376;44.802;10.332;2023-09-12T04:04:20;100814.47;;;27.87;39.00
78123;BME280;67376;44.802;10.332;2023-09-12T04:06:46;100823.53;;;27.87;39.07
78123;BME280;67376;44.802;10.332;2023-09-12T04:09:12;100819.94;;;27.87;38.95
78123;BME280;67376;44.802;10.332;2023-09-12T04:11:37;100816.38;;;27.86;39.01
78123;BME280;67376;44.802;10.332;2023-09-12T04:14:02;100818.31;;;27.86;39.24
78123;BME280;67376;44.802;10.332;2023-09-12T04:16:27;100821.06;;;27.86;39.04
78123;BME280;67376;44.802;10.332;2023-09-12T04:18:53;100823.81;;;27.86;38.97
78123;BME280;67376;44.802;10.332;2023-09-12T04:21:18;100830.41;;;27.85;39.00
78123;BME280;67376;44.802;10.332;2023-09-12T04:23:43;100832.84;;;27.86;39.29
78123;BME280;67376;44.802;10.332;2023-09-12T04:26:08;100838.34;;;27.86;39.01
78123;BME280;67376;44.802;10.332;2023-09-12T04:28:34;100832.03;;;27.86;39.03
78123;BME280;67376;44.802;10.332;2023-09-12T04:31:02;100828.47;;;27.85;39.29
78123;BME280;67376;44.802;10.332;2023-09-12T04:33:28;100839.44;;;27.85;39.31
78123;BME280;67376;44.802;10.332;2023-09-12T04:35:53;100837.81;;;27.84;39.01
78123;BME280;67376;44.802;10.332;2023-09-12T04:38:19;100847.69;;;27.85;39.02
78123;BME280;67376;44.802;10.332;2023-09-12T04:40:53;100848.78;;;27.84;39.39
78123;BME280;67376;44.802;10.332;2023-09-12T04:43:18;100841.66;;;27.83;39.06
78123;BME280;67376;44.802;10.332;2023-09-12T04:45:43;100839.72;;;27.84;39.30
78123;BME280;67376;44.802;10.332;2023-09-12T04:48:08;100841.66;;;27.83;39.14
78123;BME280;67376;44.802;10.332;2023-09-12T04:50:33;100840.84;;;27.83;39.05
78123;BME280;67376;44.802;10.332;2023-09-12T04:53:05;100852.63;;;27.83;39.33
78123;BME280;67376;44.802;10.332;2023-09-12T04:55:30;100856.47;;;27.82;39.37
78123;BME280;67376;44.802;10.332;2023-09-12T04:57:55;100856.03;;;27.70;39.67
78123;BME280;67376;44.802;10.332;2023-09-12T05:00:20;100858.25;;;27.58;40.22
78123;BME280;67376;44.802;10.332;2023-09-12T05:02:45;100866.78;;;27.46;40.28
78123;BME280;67376;44.802;10.332;2023-09-12T05:05:11;100859.97;;;27.39;40.35
78123;BME280;67376;44.802;10.332;2023-09-12T05:07:36;100864.94;;;27.32;40.56
78123;BME280;67376;44.802;10.332;2023-09-12T05:10:01;100863.81;;;27.33;40.73
78123;BME280;67376;44.802;10.332;2023-09-12T05:12:27;100868.50;;;27.27;40.69
78123;BME280;67376;44.802;10.332;2023-09-12T05:14:52;100874.25;;;27.25;40.71
78123;BME280;67376;44.802;10.332;2023-09-12T05:17:18;100881.41;;;27.21;40.53
78123;BME280;67376;44.802;10.332;2023-09-12T05:19:43;100884.69;;;27.18;40.89
78123;BME280;67376;44.802;10.332;2023-09-12T05:22:08;100877.03;;;27.15;40.84
78123;BME280;67376;44.802;10.332;2023-09-12T05:24:33;100889.94;;;27.15;40.83
78123;BME280;67376;44.802;10.332;2023-09-12T05:26:58;100895.13;;;27.21;41.00
78123;BME280;67376;44.802;10.332;2023-09-12T05:29:24;100891.81;;;27.24;40.32
78123;BME280;67376;44.802;10.332;2023-09-12T05:31:49;100891.59;;;27.06;41.06
78123;BME280;67376;44.802;10.332;2023-09-12T05:34:14;100896.00;;;26.81;41.56
78123;BME280;67376;44.802;10.332;2023-09-12T05:36:40;100896.03;;;26.51;42.67
78123;BME280;67376;44.802;10.332;2023-09-12T05:39:05;100894.09;;;26.46;42.18
78123;BME280;67376;44.802;10.332;2023-09-12T05:41:30;100898.75;;;26.46;41.91
78123;BME280;67376;44.802;10.332;2023-09-12T05:43:55;100900.41;;;26.47;42.05
78123;BME280;67376;44.802;10.332;2023-09-12T05:46:21;100904.16;;;26.25;42.36
78123;BME280;67376;44.802;10.332;2023-09-12T05:48:46;100901.69;;;26.24;43.13
78123;BME280;67376;44.802;10.332;2023-09-12T05:51:11;100904.44;;;26.19;42.94
78123;BME280;67376;44.802;10.332;2023-09-12T05:53:36;100895.91;;;26.05;43.51
78123;BME280;67376;44.802;10.332;2023-09-12T05:56:01;100899.66;;;25.69;44.54
78123;BME280;67376;44.802;10.332;2023-09-12T05:58:27;100898.09;;;25.93;43.33
78123;BME280;67376;44.802;10.332;2023-09-12T06:00:52;100895.88;;;25.85;44.33
78123;BME280;67376;44.802;10.332;2023-09-12T06:03:17;100900.84;;;25.93;43.77
78123;BME280;67376;44.802;10.332;2023-09-12T06:05:43;100905.22;;;25.99;43.52
78123;BME280;67376;44.802;10.332;2023-09-12T06:08:08;100901.47;;;25.58;44.72
78123;BME280;67376;44.802;10.332;2023-09-12T06:10:33;100889.69;;;25.52;45.19
78123;BME280;67376;44.802;10.332;2023-09-12T06:12:59;100892.34;;;25.89;44.47
78123;BME280;67376;44.802;10.332;2023-09-12T06:15:24;100895.13;;;26.25;42.73
78123;BME280;67376;44.802;10.332;2023-09-12T06:17:49;100892.19;;;26.42;42.39
78123;BME280;67376;44.802;10.332;2023-09-12T06:20:14;100896.53;;;26.58;42.57
78123;BME280;67376;44.802;10.332;2023-09-12T06:22:40;100896.28;;;26.64;42.35
78123;BME280;67376;44.802;10.332;2023-09-12T06:25:05;100895.72;;;26.73;42.24
78123;BME280;67376;44.802;10.332;2023-09-12T06:27:31;100901.19;;;26.78;41.91
78123;BME280;67376;44.802;10.332;2023-09-12T06:29:56;100896.81;;;26.82;41.85
78123;BME280;67376;44.802;10.332;2023-09-12T06:32:21;100901.19;;;26.83;41.81
78123;BME280;67376;44.802;10.332;2023-09-12T06:34:47;100904.19;;;26.91;41.57
78123;BME280;67376;44.802;10.332;2023-09-12T06:37:13;100902.28;;;26.92;41.81
78123;BME280;67376;44.802;10.332;2023-09-12T06:39:38;100906.16;;;26.96;41.92
78123;BME280;67376;44.802;10.332;2023-09-12T06:42:03;100910.25;;;26.99;41.66
78123;BME280;67376;44.802;10.332;2023-09-12T06:44:28;100908.88;;;27.01;41.78
78123;BME280;67376;44.802;10.332;2023-09-12T06:46:54;100914.09;;;27.03;41.63
78123;BME280;67376;44.802;10.332;2023-09-12T06:49:19;100909.41;;;27.08;41.47
78123;BME280;67376;44.802;10.332;2023-09-12T06:51:44;100908.31;;;27.09;41.75
78123;BME280;67376;44.802;10.332;2023-09-12T06:54:09;100906.41;;;27.10;41.48
78123;BME280;67376;44.802;10.332;2023-09-12T06:56:35;100912.16;;;27.08;41.72
78123;BME280;67376;44.802;10.332;2023-09-12T06:59:03;100910.25;;;27.09;41.61
78123;BME280;67376;44.802;10.332;2023-09-12T07:01:28;100917.91;;;27.12;41.56
78123;BME280;67376;44.802;10.332;2023-09-12T07:03:54;100917.63;;;27.13;41.84
78123;BME280;67376;44.802;10.332;2023-09-12T07:06:20;100912.16;;;27.13;41.63
78123;BME280;67376;44.802;10.332;2023-09-12T07:08:46;100916.22;;;27.16;42.28
78123;BME280;67376;44.802;10.332;2023-09-12T07:11:11;100915.13;;;27.17;41.65
78123;BME280;67376;44.802;10.332;2023-09-12T07:13:36;100929.94;;;27.21;41.58
78123;BME280;67376;44.802;10.332;2023-09-12T07:16:01;100929.38;;;27.24;41.49
78123;BME280;67376;44.802;10.332;2023-09-12T07:18:30;100934.59;;;27.25;41.32
78123;BME280;67376;44.802;10.332;2023-09-12T07:21:01;100935.13;;;27.27;41.36
78123;BME280;67376;44.802;10.332;2023-09-12T07:23:27;100931.56;;;27.27;41.43
78123;BME280;67376;44.802;10.332;2023-09-12T07:25:53;100931.00;;;27.30;41.25
78123;BME280;67376;44.802;10.332;2023-09-12T07:28:20;100939.78;;;27.32;41.19
78123;BME280;67376;44.802;10.332;2023-09-12T07:30:46;100941.16;;;27.29;41.19
78123;BME280;67376;44.802;10.332;2023-09-12T07:33:11;100940.59;;;27.33;41.39
78123;BME280;67376;44.802;10.332;2023-09-12T07:35:37;100940.59;;;27.33;41.16
78123;BME280;67376;44.802;10.332;2023-09-12T07:38:02;100938.69;;;27.33;41.04
78123;BME280;67376;44.802;10.332;2023-09-12T07:40:28;100942.25;;;27.34;41.24
78123;BME280;67376;44.802;10.332;2023-09-12T07:42:55;100935.38;;;27.36;40.75
78123;BME280;67376;44.802;10.332;2023-09-12T07:45:20;100945.78;;;27.39;41.21
78123;BME280;67376;44.802;10.332;2023-09-12T07:47:46;100949.38;;;27.40;41.03
78123;BME280;67376;44.802;10.332;2023-09-12T07:50:11;100950.72;;;27.42;41.11
78123;BME280;67376;44.802;10.332;2023-09-12T07:52:36;100948.81;;;27.43;41.01
78123;BME280;67376;44.802;10.332;2023-09-12T07:55:02;100960.03;;;27.46;41.13
78123;BME280;67376;44.802;10.332;2023-09-12T07:57:28;100952.63;;;27.47;40.89
78123;BME280;67376;44.802;10.332;2023-09-12T07:59:53;100960.88;;;27.47;41.12
78123;BME280;67376;44.802;10.332;2023-09-12T08:02:19;100964.16;;;27.49;40.90
78123;BME280;67376;44.802;10.332;2023-09-12T08:04:44;100955.91;;;27.49;41.12
78123;BME280;67376;44.802;10.332;2023-09-12T08:07:09;100962.22;;;27.49;41.21
78123;BME280;67376;44.802;10.332;2023-09-12T08:12:32;100964.41;;;27.52;41.22
78123;BME280;67376;44.802;10.332;2023-09-12T08:14:57;100961.13;;;27.55;41.13
78123;BME280;67376;44.802;10.332;2023-09-12T08:17:24;100961.94;;;27.56;41.20
78123;BME280;67376;44.802;10.332;2023-09-12T08:19:49;100954.53;;;27.56;41.11
78123;BME280;67376;44.802;10.332;2023-09-12T08:22:14;100955.06;;;27.58;41.26
78123;BME280;67376;44.802;10.332;2023-09-12T08:24:40;100956.47;;;27.61;41.16
78123;BME280;67376;44.802;10.332;2023-09-12T08:27:05;100957.00;;;27.58;41.19
78123;BME280;67376;44.802;10.332;2023-09-12T08:29:31;100956.44;;;27.56;41.07
78123;BME280;67376;44.802;10.332;2023-09-12T08:31:57;100957.28;;;27.56;41.39
78123;BME280;67376;44.802;10.332;2023-09-12T08:34:22;100958.91;;;27.57;41.35
78123;BME280;67376;44.802;10.332;2023-09-12T08:36:47;100958.09;;;27.57;41.36
78123;BME280;67376;44.802;10.332;2023-09-12T08:39:14;100948.25;;;27.61;41.18
78123;BME280;67376;44.802;10.332;2023-09-12T08:41:39;100951.53;;;27.63;41.10
78123;BME280;67376;44.802;10.332;2023-09-12T08:44:05;100953.16;;;27.64;41.13
78123;BME280;67376;44.802;10.332;2023-09-12T08:46:31;100950.44;;;27.64;41.17
78123;BME280;67376;44.802;10.332;2023-09-12T08:48:56;100950.16;;;27.66;41.40
78123;BME280;67376;44.802;10.332;2023-09-12T08:51:22;100946.31;;;27.67;41.24
78123;BME280;67376;44.802;10.332;2023-09-12T08:53:49;100945.19;;;27.68;41.36
78123;BME280;67376;44.802;10.332;2023-09-12T08:56:14;100953.16;;;27.69;41.17
78123;BME280;67376;44.802;10.332;2023-09-12T08:58:39;100950.13;;;27.71;41.17
78123;BME280;67376;44.802;10.332;2023-09-12T09:01:06;100958.06;;;27.72;41.21
78123;BME280;67376;44.802;10.332;2023-09-12T09:03:31;100950.94;;;27.71;41.68
78123;BME280;67376;44.802;10.332;2023-09-12T09:05:57;100955.91;;;27.69;41.15
78123;BME280;67376;44.802;10.332;2023-09-12T09:08:23;100954.19;;;27.73;41.39
78123;BME280;67376;44.802;10.332;2023-09-12T09:10:55;100951.47;;;27.73;41.06
78123;BME280;67376;44.802;10.332;2023-09-12T09:13:21;100963.81;;;27.76;41.15
78123;BME280;67376;44.802;10.332;2023-09-12T09:15:46;100960.22;;;27.75;41.69
78123;BME280;67376;44.802;10.332;2023-09-12T09:18:12;100958.84;;;27.78;41.36
78123;BME280;67376;44.802;10.332;2023-09-12T09:20:37;100955.81;;;27.79;41.68
78123;BME280;67376;44.802;10.332;2023-09-12T09:23:04;100958.56;;;27.79;41.25
78123;BME280;67376;44.802;10.332;2023-09-12T09:25:34;100962.97;;;27.80;41.38
78123;BME280;67376;44.802;10.332;2023-09-12T09:28:02;100959.13;;;27.81;41.29
78123;BME280;67376;44.802;10.332;2023-09-12T09:30:41;100966.53;;;27.81;41.34
78123;BME280;67376;44.802;10.332;2023-09-12T09:33:06;100953.91;;;27.80;41.24
78123;BME280;67376;44.802;10.332;2023-09-12T09:35:32;100960.75;;;27.82;41.21
78123;BME280;67376;44.802;10.332;2023-09-12T09:37:57;100952.53;;;27.82;41.35
78123;BME280;67376;44.802;10.332;2023-09-12T09:40:23;100945.94;;;27.83;41.24
78123;BME280;67376;44.802;10.332;2023-09-12T09:42:53;100947.84;;;27.83;41.51
78123;BME280;67376;44.802;10.332;2023-09-12T09:45:18;100947.56;;;27.84;41.26
78123;BME280;67376;44.802;10.332;2023-09-12T09:47:43;100947.56;;;27.84;41.33
78123;BME280;67376;44.802;10.332;2023-09-12T09:50:13;100951.69;;;27.87;41.23
78123;BME280;67376;44.802;10.332;2023-09-12T09:52:39;100953.59;;;27.86;41.31
78123;BME280;67376;44.802;10.332;2023-09-12T09:55:06;100947.84;;;27.88;41.30
78123;BME280;67376;44.802;10.332;2023-09-12T09:57:36;100952.22;;;27.89;41.44
78123;BME280;67376;44.802;10.332;2023-09-12T10:00:01;100943.38;;;28.02;41.25
78123;BME280;67376;44.802;10.332;2023-09-12T10:02:33;100948.63;;;27.99;41.03
78123;BME280;67376;44.802;10.332;2023-09-12T10:04:58;100948.34;;;28.00;40.79
78123;BME280;67376;44.802;10.332;2023-09-12T10:07:25;100947.47;;;28.05;40.99
78123;BME280;67376;44.802;10.332;2023-09-12T10:09:51;100951.81;;;28.16;41.07
78123;BME280;67376;44.802;10.332;2023-09-12T10:12:16;100946.91;;;28.08;41.05
78123;BME280;67376;44.802;10.332;2023-09-12T10:14:42;100948.22;;;28.20;40.63
78123;BME280;67376;44.802;10.332;2023-09-12T10:17:08;100940.75;;;28.31;40.79
78123;BME280;67376;44.802;10.332;2023-09-12T10:19:38;100941.28;;;28.33;40.74
78123;BME280;67376;44.802;10.332;2023-09-12T10:22:10;100932.56;;;28.21;40.48
78123;BME280;67376;44.802;10.332;2023-09-12T10:24:37;100930.94;;;28.25;41.30
78123;BME280;67376;44.802;10.332;2023-09-12T10:27:04;100930.59;;;28.32;40.59
78123;BME280;67376;44.802;10.332;2023-09-12T10:29:30;100926.22;;;28.31;41.11
78123;BME280;67376;44.802;10.332;2023-09-12T10:31:56;100928.34;;;28.39;40.34
78123;BME280;67376;44.802;10.332;2023-09-12T10:34:21;100917.69;;;28.32;40.23
78123;BME280;67376;44.802;10.332;2023-09-12T10:36:49;100920.75;;;28.20;40.67
78123;BME280;67376;44.802;10.332;2023-09-12T10:39:14;100917.75;;;28.17;40.28
78123;BME280;67376;44.802;10.332;2023-09-12T10:41:40;100913.28;;;28.31;39.99
78123;BME280;67376;44.802;10.332;2023-09-12T10:44:16;100914.06;;;28.37;40.08
78123;BME280;67376;44.802;10.332;2023-09-12T10:46:41;100913.78;;;28.38;39.98
78123;BME280;67376;44.802;10.332;2023-09-12T10:49:08;100911.59;;;28.35;40.27
78123;BME280;67376;44.802;10.332;2023-09-12T10:51:40;100901.94;;;28.43;40.31
78123;BME280;67376;44.802;10.332;2023-09-12T10:54:06;100900.56;;;28.45;39.91
78123;BME280;67376;44.802;10.332;2023-09-12T10:56:33;100898.38;;;28.42;39.62
78123;BME280;67376;44.802;10.332;2023-09-12T11:01:31;100899.44;;;28.46;39.63
78123;BME280;67376;44.802;10.332;2023-09-12T11:03:57;100891.50;;;28.45;39.69
78123;BME280;67376;44.802;10.332;2023-09-12T11:06:23;100892.31;;;28.45;39.18
78123;BME280;67376;44.802;10.332;2023-09-12T11:11:37;100878.41;;;28.32;39.72
78123;BME280;67376;44.802;10.332;2023-09-12T11:14:03;100883.06;;;28.31;39.89
78123;BME280;67376;44.802;10.332;2023-09-12T11:16:28;100873.50;;;28.29;40.09
78123;BME280;67376;44.802;10.332;2023-09-12T11:21:37;100869.31;;;28.36;39.99
78123;BME280;67376;44.802;10.332;2023-09-12T11:24:02;100870.47;;;28.30;39.73
78123;BME280;67376;44.802;10.332;2023-09-12T11:26:29;100870.16;;;28.32;40.15
78123;BME280;67376;44.802;10.332;2023-09-12T11:28:54;100864.34;;;28.38;40.10
78123;BME280;67376;44.802;10.332;2023-09-12T11:31:26;100867.59;;;28.45;39.39
78123;BME280;67376;44.802;10.332;2023-09-12T11:33:52;100863.16;;;28.49;39.43
78123;BME280;67376;44.802;10.332;2023-09-12T11:36:17;100861.19;;;28.55;39.27
78123;BME280;67376;44.802;10.332;2023-09-12T11:38:43;100855.78;;;28.45;39.41
78123;BME280;67376;44.802;10.332;2023-09-12T11:41:08;100852.38;;;28.29;39.81
78123;BME280;67376;44.802;10.332;2023-09-12T11:43:34;100850.66;;;28.33;40.02
78123;BME280;67376;44.802;10.332;2023-09-12T11:46:03;100845.97;;;28.34;39.63
78123;BME280;67376;44.802;10.332;2023-09-12T11:48:29;100844.94;;;28.30;39.53
78123;BME280;67376;44.802;10.332;2023-09-12T11:50:57;100847.34;;;28.36;39.39
78123;BME280;67376;44.802;10.332;2023-09-12T11:53:24;100842.78;;;28.26;39.25
78123;BME280;67376;44.802;10.332;2023-09-12T11:55:51;100843.31;;;28.29;39.50
78123;BME280;67376;44.802;10.332;2023-09-12T11:58:17;100849.91;;;28.27;39.50
78123;BME280;67376;44.802;10.332;2023-09-12T12:03:38;100843.25;;;28.34;39.10
78123;BME280;67376;44.802;10.332;2023-09-12T12:06:03;100836.56;;;28.45;38.56
78123;BME280;67376;44.802;10.332;2023-09-12T12:08:29;100837.66;;;28.44;38.80
78123;BME280;67376;44.802;10.332;2023-09-12T12:10:56;100834.59;;;28.50;38.58
78123;BME280;67376;44.802;10.332;2023-09-12T12:13:23;100836.88;;;28.38;38.76
78123;BME280;67376;44.802;10.332;2023-09-12T12:15:48;100830.25;;;28.44;38.85
78123;BME280;67376;44.802;10.332;2023-09-12T12:18:14;100824.16;;;28.47;38.65
78123;BME280;67376;44.802;10.332;2023-09-12T12:20:39;100810.78;;;28.41;39.11
78123;BME280;67376;44.802;10.332;2023-09-12T12:23:04;100818.81;;;28.32;39.17
78123;BME280;67376;44.802;10.332;2023-09-12T12:25:33;100814.13;;;28.33;38.93
78123;BME280;67376;44.802;10.332;2023-09-12T12:27:59;100809.19;;;28.35;39.51
78123;BME280;67376;44.802;10.332;2023-09-12T12:30:24;100806.63;;;28.43;38.83
78123;BME280;67376;44.802;10.332;2023-09-12T12:32:49;100808.22;;;28.49;38.82
78123;BME280;67376;44.802;10.332;2023-09-12T12:35:18;100810.97;;;28.49;38.82
78123;BME280;67376;44.802;10.332;2023-09-12T12:37:44;100800.13;;;28.34;39.26
78123;BME280;67376;44.802;10.332;2023-09-12T12:40:11;100801.22;;;28.33;39.33
78123;BME280;67376;44.802;10.332;2023-09-12T12:42:38;100807.31;;;28.30;39.29
78123;BME280;67376;44.802;10.332;2023-09-12T12:45:10;100805.69;;;28.29;39.17
78123;BME280;67376;44.802;10.332;2023-09-12T12:47:36;100804.03;;;28.28;39.48
78123;BME280;67376;44.802;10.332;2023-09-12T12:50:01;100803.09;;;28.38;39.01
78123;BME280;67376;44.802;10.332;2023-09-12T12:52:26;100792.25;;;28.27;39.00
78123;BME280;67376;44.802;10.332;2023-09-12T12:54:51;100794.69;;;28.29;39.18